sensor_id;sensor_type;location;lat;lon;timestamp;P1;durP1;ratioP1;P2;durP2;ratioP2
75932;SDS011;64803;52.356;5.310;2023-04-15T00:01:43;12.65;;;4.20;;
75932;SDS011;64803;52.356;5.310;2023-04-15T00:04:09;11.40;;;4.18;;
75932;SDS011;64803;52.356;5.310;2023-04-15T00:06:36;9.82;;;4.22;;
75932;SDS011;64803;52.356;5.310;2023-04-15T00:09:02;10.55;;;4.38;;
75932;SDS011;64803;52.356;5.310;2023-04-15T00:11:28;12.18;;;4.68;;
75932;SDS011;64803;52.356;5.310;2023-04-15T00:13:54;11.85;;;5.18;;
75932;SDS011;64803;52.356;5.310;2023-04-15T00:16:20;12.35;;;4.65;;
75932;SDS011;64803;52.356;5.310;2023-04-15T00:18:47;12.25;;;4.97;;
75932;SDS011;64803;52.356;5.310;2023-04-15T00:21:13;10.55;;;4.97;;
75932;SDS011;64803;52.356;5.310;2023-04-15T00:23:39;14.60;;;5.05;;
75932;SDS011;64803;52.356;5.310;2023-04-15T00:26:05;9.90;;;4.38;;
75932;SDS011;64803;52.356;5.310;2023-04-15T00:28:32;10.80;;;4.90;;
75932;SDS011;64803;52.356;5.310;2023-04-15T00:30:58;10.55;;;4.72;;
75932;SDS011;64803;52.356;5.310;2023-04-15T00:33:24;14.35;;;5.45;;
75932;SDS011;64803;52.356;5.310;2023-04-15T00:35:50;11.10;;;4.70;;
75932;SDS011;64803;52.356;5.310;2023-04-15T00:38:16;14.48;;;5.57;;
75932;SDS011;64803;52.356;5.310;2023-04-15T00:40:42;10.32;;;4.75;;
75932;SDS011;64803;52.356;5.310;2023-04-15T00:43:09;12.98;;;5.53;;
75932;SDS011;64803;52.356;5.310;2023-04-15T00:45:35;17.25;;;5.47;;
75932;SDS011;64803;52.356;5.310;2023-04-15T00:48:01;12.15;;;5.03;;
75932;SDS011;64803;52.356;5.310;2023-04-15T00:50:27;11.02;;;5.30;;
75932;SDS011;64803;52.356;5.310;2023-04-15T00:52:53;13.35;;;4.70;;
75932;SDS011;64803;52.356;5.310;2023-04-15T00:55:19;11.25;;;4.45;;
75932;SDS011;64803;52.356;5.310;2023-04-15T00:57:45;14.05;;;4.82;;
75932;SDS011;64803;52.356;5.310;2023-04-15T01:00:11;7.95;;;3.38;;
75932;SDS011;64803;52.356;5.310;2023-04-15T01:02:38;6.07;;;3.00;;
75932;SDS011;64803;52.356;5.310;2023-04-15T01:05:05;7.68;;;3.05;;
75932;SDS011;64803;52.356;5.310;2023-04-15T01:07:32;11.23;;;4.93;;
75932;SDS011;64803;52.356;5.310;2023-04-15T01:09:58;10.30;;;4.72;;
75932;SDS011;64803;52.356;5.310;2023-04-15T01:12:25;11.50;;;3.70;;
75932;SDS011;64803;52.356;5.310;2023-04-15T01:14:52;7.53;;;2.38;;
75932;SDS011;64803;52.356;5.310;2023-04-15T01:19:46;14.77;;;5.00;;
75932;SDS011;64803;52.356;5.310;2023-04-15T01:22:12;8.50;;;4.20;;
75932;SDS011;64803;52.356;5.310;2023-04-15T01:24:38;12.75;;;5.05;;
75932;SDS011;64803;52.356;5.310;2023-04-15T01:27:05;16.58;;;5.07;;
75932;SDS011;64803;52.356;5.310;2023-04-15T01:29:31;8.48;;;4.00;;
75932;SDS011;64803;52.356;5.310;2023-04-15T01:34:26;12.65;;;5.07;;
75932;SDS011;64803;52.356;5.310;2023-04-15T01:36:53;7.93;;;3.47;;
75932;SDS011;64803;52.356;5.310;2023-04-15T01:39:20;11.85;;;4.93;;
75932;SDS011;64803;52.356;5.310;2023-04-15T01:41:47;9.27;;;3.97;;
75932;SDS011;64803;52.356;5.310;2023-04-15T01:44:15;10.77;;;5.40;;
75932;SDS011;64803;52.356;5.310;2023-04-15T01:46:41;12.93;;;5.28;;
75932;SDS011;64803;52.356;5.310;2023-04-15T01:49:08;11.70;;;5.05;;
75932;SDS011;64803;52.356;5.310;2023-04-15T01:51:34;8.95;;;3.55;;
75932;SDS011;64803;52.356;5.310;2023-04-15T01:54:00;10.75;;;3.67;;
75932;SDS011;64803;52.356;5.310;2023-04-15T01:56:26;13.25;;;5.50;;
75932;SDS011;64803;52.356;5.310;2023-04-15T01:58:52;12.40;;;4.38;;
75932;SDS011;64803;52.356;5.310;2023-04-15T02:01:18;8.75;;;4.15;;
75932;SDS011;64803;52.356;5.310;2023-04-15T02:03:44;9.18;;;4.80;;
75932;SDS011;64803;52.356;5.310;2023-04-15T02:06:11;11.32;;;5.47;;
75932;SDS011;64803;52.356;5.310;2023-04-15T02:08:37;8.70;;;3.30;;
75932;SDS011;64803;52.356;5.310;2023-04-15T02:11:06;11.13;;;4.45;;
75932;SDS011;64803;52.356;5.310;2023-04-15T02:13:32;12.75;;;6.30;;
75932;SDS011;64803;52.356;5.310;2023-04-15T02:15:59;13.13;;;5.20;;
75932;SDS011;64803;52.356;5.310;2023-04-15T02:18:25;12.65;;;5.70;;
75932;SDS011;64803;52.356;5.310;2023-04-15T02:20:51;10.90;;;5.03;;
75932;SDS011;64803;52.356;5.310;2023-04-15T02:23:17;12.25;;;4.88;;
75932;SDS011;64803;52.356;5.310;2023-04-15T02:25:43;11.77;;;5.15;;
75932;SDS011;64803;52.356;5.310;2023-04-15T02:28:09;8.50;;;4.10;;
75932;SDS011;64803;52.356;5.310;2023-04-15T02:30:35;15.43;;;6.25;;
75932;SDS011;64803;52.356;5.310;2023-04-15T02:33:01;11.25;;;4.88;;
75932;SDS011;64803;52.356;5.310;2023-04-15T02:35:28;9.25;;;3.75;;
75932;SDS011;64803;52.356;5.310;2023-04-15T02:37:54;14.80;;;4.32;;
75932;SDS011;64803;52.356;5.310;2023-04-15T02:40:20;11.10;;;5.00;;
75932;SDS011;64803;52.356;5.310;2023-04-15T02:42:46;13.13;;;5.57;;
75932;SDS011;64803;52.356;5.310;2023-04-15T02:45:15;10.35;;;4.97;;
75932;SDS011;64803;52.356;5.310;2023-04-15T02:47:42;13.65;;;6.28;;
75932;SDS011;64803;52.356;5.310;2023-04-15T02:50:11;14.07;;;6.15;;
75932;SDS011;64803;52.356;5.310;2023-04-15T02:52:40;13.45;;;5.03;;
75932;SDS011;64803;52.356;5.310;2023-04-15T02:55:07;12.27;;;5.30;;
75932;SDS011;64803;52.356;5.310;2023-04-15T02:57:35;14.05;;;5.38;;
75932;SDS011;64803;52.356;5.310;2023-04-15T03:00:05;9.95;;;4.25;;
75932;SDS011;64803;52.356;5.310;2023-04-15T03:02:35;13.48;;;5.32;;
75932;SDS011;64803;52.356;5.310;2023-04-15T03:05:03;15.38;;;5.45;;
75932;SDS011;64803;52.356;5.310;2023-04-15T03:07:31;13.63;;;5.20;;
75932;SDS011;64803;52.356;5.310;2023-04-15T03:09:57;9.30;;;4.10;;
75932;SDS011;64803;52.356;5.310;2023-04-15T03:12:24;12.25;;;4.68;;
75932;SDS011;64803;52.356;5.310;2023-04-15T03:14:52;8.88;;;3.90;;
75932;SDS011;64803;52.356;5.310;2023-04-15T03:17:21;11.60;;;4.82;;
75932;SDS011;64803;52.356;5.310;2023-04-15T03:19:48;13.88;;;5.53;;
75932;SDS011;64803;52.356;5.310;2023-04-15T03:22:14;11.13;;;5.10;;
75932;SDS011;64803;52.356;5.310;2023-04-15T03:24:40;10.48;;;4.72;;
75932;SDS011;64803;52.356;5.310;2023-04-15T03:27:06;13.93;;;5.25;;
75932;SDS011;64803;52.356;5.310;2023-04-15T03:29:34;16.95;;;5.60;;
75932;SDS011;64803;52.356;5.310;2023-04-15T03:32:00;13.57;;;5.97;;
75932;SDS011;64803;52.356;5.310;2023-04-15T03:34:28;10.90;;;4.43;;
75932;SDS011;64803;52.356;5.310;2023-04-15T03:36:54;14.48;;;5.05;;
75932;SDS011;64803;52.356;5.310;2023-04-15T03:39:20;15.20;;;5.45;;
75932;SDS011;64803;52.356;5.310;2023-04-15T03:41:46;13.82;;;4.70;;
75932;SDS011;64803;52.356;5.310;2023-04-15T03:44:12;11.60;;;5.20;;
75932;SDS011;64803;52.356;5.310;2023-04-15T03:46:38;15.32;;;5.50;;
75932;SDS011;64803;52.356;5.310;2023-04-15T03:49:05;12.55;;;5.10;;
75932;SDS011;64803;52.356;5.310;2023-04-15T03:51:31;12.80;;;4.88;;
75932;SDS011;64803;52.356;5.310;2023-04-15T03:53:57;15.05;;;5.28;;
75932;SDS011;64803;52.356;5.310;2023-04-15T03:56:23;13.18;;;5.40;;
75932;SDS011;64803;52.356;5.310;2023-04-15T03:58:49;12.10;;;5.57;;
75932;SDS011;64803;52.356;5.310;2023-04-15T04:01:16;15.93;;;6.03;;
75932;SDS011;64803;52.356;5.310;2023-04-15T04:03:42;13.63;;;5.97;;
75932;SDS011;64803;52.356;5.310;2023-04-15T04:06:08;11.48;;;4.60;;
75932;SDS011;64803;52.356;5.310;2023-04-15T04:08:35;13.27;;;6.00;;
75932;SDS011;64803;52.356;5.310;2023-04-15T04:11:01;13.85;;;5.57;;
75932;SDS011;64803;52.356;5.310;2023-04-15T04:13:27;18.15;;;5.80;;
75932;SDS011;64803;52.356;5.310;2023-04-15T04:15:53;13.95;;;5.55;;
75932;SDS011;64803;52.356;5.310;2023-04-15T04:18:19;11.88;;;5.35;;
75932;SDS011;64803;52.356;5.310;2023-04-15T04:20:45;13.15;;;5.70;;
75932;SDS011;64803;52.356;5.310;2023-04-15T04:23:11;13.45;;;5.95;;
75932;SDS011;64803;52.356;5.310;2023-04-15T04:25:37;14.35;;;5.50;;
75932;SDS011;64803;52.356;5.310;2023-04-15T04:28:04;17.77;;;6.82;;
75932;SDS011;64803;52.356;5.310;2023-04-15T04:30:30;17.52;;;6.07;;
75932;SDS011;64803;52.356;5.310;2023-04-15T04:32:56;13.10;;;6.30;;
75932;SDS011;64803;52.356;5.310;2023-04-15T04:35:22;15.77;;;7.45;;
75932;SDS011;64803;52.356;5.310;2023-04-15T04:37:48;18.27;;;7.22;;
75932;SDS011;64803;52.356;5.310;2023-04-15T04:40:14;18.50;;;6.88;;
75932;SDS011;64803;52.356;5.310;2023-04-15T04:42:40;15.35;;;6.72;;
75932;SDS011;64803;52.356;5.310;2023-04-15T04:45:06;17.75;;;7.40;;
75932;SDS011;64803;52.356;5.310;2023-04-15T04:47:33;18.15;;;7.75;;
75932;SDS011;64803;52.356;5.310;2023-04-15T04:49:59;17.08;;;7.65;;
75932;SDS011;64803;52.356;5.310;2023-04-15T04:52:25;17.58;;;8.32;;
75932;SDS011;64803;52.356;5.310;2023-04-15T04:54:51;15.98;;;6.80;;
75932;SDS011;64803;52.356;5.310;2023-04-15T04:57:17;18.92;;;7.45;;
75932;SDS011;64803;52.356;5.310;2023-04-15T04:59:43;15.40;;;7.20;;
75932;SDS011;64803;52.356;5.310;2023-04-15T05:02:09;19.02;;;7.50;;
75932;SDS011;64803;52.356;5.310;2023-04-15T05:04:35;13.52;;;6.20;;
75932;SDS011;64803;52.356;5.310;2023-04-15T05:07:01;16.45;;;6.95;;
75932;SDS011;64803;52.356;5.310;2023-04-15T05:09:27;15.65;;;5.95;;
75932;SDS011;64803;52.356;5.310;2023-04-15T05:11:54;20.00;;;7.40;;
75932;SDS011;64803;52.356;5.310;2023-04-15T05:14:21;19.40;;;8.70;;
75932;SDS011;64803;52.356;5.310;2023-04-15T05:16:47;15.68;;;7.43;;
75932;SDS011;64803;52.356;5.310;2023-04-15T05:19:13;18.58;;;8.38;;
75932;SDS011;64803;52.356;5.310;2023-04-15T05:21:39;16.88;;;7.75;;
75932;SDS011;64803;52.356;5.310;2023-04-15T05:24:05;18.08;;;7.78;;
75932;SDS011;64803;52.356;5.310;2023-04-15T05:26:31;21.90;;;6.72;;
75932;SDS011;64803;52.356;5.310;2023-04-15T05:28:57;19.25;;;7.82;;
75932;SDS011;64803;52.356;5.310;2023-04-15T05:31:23;15.85;;;7.53;;
75932;SDS011;64803;52.356;5.310;2023-04-15T05:33:49;20.50;;;8.80;;
75932;SDS011;64803;52.356;5.310;2023-04-15T05:36:15;19.80;;;9.00;;
75932;SDS011;64803;52.356;5.310;2023-04-15T05:38:42;19.77;;;8.68;;
75932;SDS011;64803;52.356;5.310;2023-04-15T05:41:08;18.17;;;7.95;;
75932;SDS011;64803;52.356;5.310;2023-04-15T05:43:34;17.05;;;6.65;;
75932;SDS011;64803;52.356;5.310;2023-04-15T05:46:00;20.02;;;8.82;;
75932;SDS011;64803;52.356;5.310;2023-04-15T05:48:26;17.02;;;7.95;;
75932;SDS011;64803;52.356;5.310;2023-04-15T05:50:52;15.52;;;6.47;;
75932;SDS011;64803;52.356;5.310;2023-04-15T05:53:18;20.08;;;9.05;;
75932;SDS011;64803;52.356;5.310;2023-04-15T05:55:45;21.55;;;8.35;;
75932;SDS011;64803;52.356;5.310;2023-04-15T05:58:11;21.02;;;9.90;;
75932;SDS011;64803;52.356;5.310;2023-04-15T06:00:37;17.55;;;6.25;;
75932;SDS011;64803;52.356;5.310;2023-04-15T06:03:04;14.40;;;6.13;;
75932;SDS011;64803;52.356;5.310;2023-04-15T06:05:30;16.23;;;7.53;;
75932;SDS011;64803;52.356;5.310;2023-04-15T06:07:56;23.13;;;9.40;;
75932;SDS011;64803;52.356;5.310;2023-04-15T06:10:22;21.83;;;8.20;;
75932;SDS011;64803;52.356;5.310;2023-04-15T06:12:48;20.63;;;9.02;;
75932;SDS011;64803;52.356;5.310;2023-04-15T06:15:14;19.58;;;8.48;;
75932;SDS011;64803;52.356;5.310;2023-04-15T06:17:41;16.23;;;7.55;;
75932;SDS011;64803;52.356;5.310;2023-04-15T06:20:07;16.33;;;7.20;;
75932;SDS011;64803;52.356;5.310;2023-04-15T06:22:35;17.42;;;8.43;;
75932;SDS011;64803;52.356;5.310;2023-04-15T06:25:02;21.50;;;8.77;;
75932;SDS011;64803;52.356;5.310;2023-04-15T06:27:28;17.17;;;6.45;;
75932;SDS011;64803;52.356;5.310;2023-04-15T06:29:54;15.88;;;7.28;;
75932;SDS011;64803;52.356;5.310;2023-04-15T06:32:20;19.05;;;8.70;;
75932;SDS011;64803;52.356;5.310;2023-04-15T06:34:46;16.60;;;7.50;;
75932;SDS011;64803;52.356;5.310;2023-04-15T06:37:12;15.75;;;8.18;;
75932;SDS011;64803;52.356;5.310;2023-04-15T06:39:41;18.63;;;7.28;;
75932;SDS011;64803;52.356;5.310;2023-04-15T06:42:08;18.67;;;8.23;;
75932;SDS011;64803;52.356;5.310;2023-04-15T06:44:35;18.33;;;8.32;;
75932;SDS011;64803;52.356;5.310;2023-04-15T06:47:02;15.50;;;6.70;;
75932;SDS011;64803;52.356;5.310;2023-04-15T06:49:28;15.73;;;7.43;;
75932;SDS011;64803;52.356;5.310;2023-04-15T06:51:54;13.48;;;5.13;;
75932;SDS011;64803;52.356;5.310;2023-04-15T06:54:20;13.23;;;6.13;;
75932;SDS011;64803;52.356;5.310;2023-04-15T06:56:46;16.60;;;6.07;;
75932;SDS011;64803;52.356;5.310;2023-04-15T06:59:12;13.77;;;5.60;;
75932;SDS011;64803;52.356;5.310;2023-04-15T07:01:42;15.35;;;6.90;;
75932;SDS011;64803;52.356;5.310;2023-04-15T07:04:08;11.40;;;4.55;;
75932;SDS011;64803;52.356;5.310;2023-04-15T07:06:34;12.95;;;6.82;;
75932;SDS011;64803;52.356;5.310;2023-04-15T07:09:00;18.35;;;7.72;;
75932;SDS011;64803;52.356;5.310;2023-04-15T07:11:27;19.15;;;7.25;;
75932;SDS011;64803;52.356;5.310;2023-04-15T07:13:53;10.43;;;4.63;;
75932;SDS011;64803;52.356;5.310;2023-04-15T07:16:19;15.25;;;6.63;;
75932;SDS011;64803;52.356;5.310;2023-04-15T07:18:45;24.45;;;7.97;;
75932;SDS011;64803;52.356;5.310;2023-04-15T07:21:11;20.13;;;7.82;;
75932;SDS011;64803;52.356;5.310;2023-04-15T07:23:40;18.80;;;8.52;;
75932;SDS011;64803;52.356;5.310;2023-04-15T07:26:07;18.83;;;7.78;;
75932;SDS011;64803;52.356;5.310;2023-04-15T07:28:33;15.30;;;5.28;;
75932;SDS011;64803;52.356;5.310;2023-04-15T07:31:00;15.48;;;5.75;;
75932;SDS011;64803;52.356;5.310;2023-04-15T07:33:26;14.30;;;6.47;;
75932;SDS011;64803;52.356;5.310;2023-04-15T07:35:51;15.63;;;5.65;;
75932;SDS011;64803;52.356;5.310;2023-04-15T07:38:17;10.25;;;4.05;;
75932;SDS011;64803;52.356;5.310;2023-04-15T07:40:44;10.57;;;4.47;;
75932;SDS011;64803;52.356;5.310;2023-04-15T07:43:11;9.57;;;3.50;;
75932;SDS011;64803;52.356;5.310;2023-04-15T07:45:38;12.02;;;5.25;;
75932;SDS011;64803;52.356;5.310;2023-04-15T07:48:05;9.95;;;3.78;;
75932;SDS011;64803;52.356;5.310;2023-04-15T07:50:31;8.85;;;3.70;;
75932;SDS011;64803;52.356;5.310;2023-04-15T07:52:57;8.18;;;3.53;;
75932;SDS011;64803;52.356;5.310;2023-04-15T07:55:23;12.82;;;4.25;;
75932;SDS011;64803;52.356;5.310;2023-04-15T07:57:49;4.82;;;2.33;;
75932;SDS011;64803;52.356;5.310;2023-04-15T08:00:15;7.13;;;2.25;;
75932;SDS011;64803;52.356;5.310;2023-04-15T08:02:42;7.50;;;2.85;;
75932;SDS011;64803;52.356;5.310;2023-04-15T08:05:12;8.68;;;3.28;;
75932;SDS011;64803;52.356;5.310;2023-04-15T08:07:39;8.85;;;2.30;;
75932;SDS011;64803;52.356;5.310;2023-04-15T08:10:06;8.27;;;3.35;;
75932;SDS011;64803;52.356;5.310;2023-04-15T08:12:32;9.60;;;3.95;;
75932;SDS011;64803;52.356;5.310;2023-04-15T08:14:58;9.13;;;3.90;;
75932;SDS011;64803;52.356;5.310;2023-04-15T08:17:25;9.77;;;3.85;;
75932;SDS011;64803;52.356;5.310;2023-04-15T08:19:51;7.40;;;2.97;;
75932;SDS011;64803;52.356;5.310;2023-04-15T08:22:18;8.70;;;3.15;;
75932;SDS011;64803;52.356;5.310;2023-04-15T08:24:44;9.48;;;3.47;;
75932;SDS011;64803;52.356;5.310;2023-04-15T08:27:10;9.38;;;3.72;;
75932;SDS011;64803;52.356;5.310;2023-04-15T08:29:36;13.02;;;4.50;;
75932;SDS011;64803;52.356;5.310;2023-04-15T08:32:02;10.02;;;4.65;;
75932;SDS011;64803;52.356;5.310;2023-04-15T08:34:28;12.95;;;4.88;;
75932;SDS011;64803;52.356;5.310;2023-04-15T08:36:54;9.57;;;3.22;;
75932;SDS011;64803;52.356;5.310;2023-04-15T08:39:20;12.13;;;4.43;;
75932;SDS011;64803;52.356;5.310;2023-04-15T08:41:47;9.15;;;4.13;;
75932;SDS011;64803;52.356;5.310;2023-04-15T08:44:21;9.50;;;4.10;;
75932;SDS011;64803;52.356;5.310;2023-04-15T08:46:48;6.50;;;2.63;;
75932;SDS011;64803;52.356;5.310;2023-04-15T08:49:15;8.30;;;3.22;;
75932;SDS011;64803;52.356;5.310;2023-04-15T08:51:42;7.78;;;3.33;;
75932;SDS011;64803;52.356;5.310;2023-04-15T08:54:08;8.85;;;2.53;;
75932;SDS011;64803;52.356;5.310;2023-04-15T08:56:35;7.63;;;2.63;;
75932;SDS011;64803;52.356;5.310;2023-04-15T08:59:01;8.27;;;3.30;;
75932;SDS011;64803;52.356;5.310;2023-04-15T09:01:28;6.88;;;2.42;;
75932;SDS011;64803;52.356;5.310;2023-04-15T09:03:55;5.07;;;2.10;;
75932;SDS011;64803;52.356;5.310;2023-04-15T09:06:22;7.40;;;2.50;;
75932;SDS011;64803;52.356;5.310;2023-04-15T09:08:48;6.95;;;2.60;;
75932;SDS011;64803;52.356;5.310;2023-04-15T09:11:16;9.35;;;2.97;;
75932;SDS011;64803;52.356;5.310;2023-04-15T09:13:42;4.88;;;2.00;;
75932;SDS011;64803;52.356;5.310;2023-04-15T09:16:08;5.72;;;2.30;;
75932;SDS011;64803;52.356;5.310;2023-04-15T09:18:35;6.53;;;1.90;;
75932;SDS011;64803;52.356;5.310;2023-04-15T09:21:03;6.05;;;2.35;;
75932;SDS011;64803;52.356;5.310;2023-04-15T09:23:43;8.50;;;3.53;;
75932;SDS011;64803;52.356;5.310;2023-04-15T09:26:29;13.98;;;3.72;;
75932;SDS011;64803;52.356;5.310;2023-04-15T09:29:30;7.72;;;3.42;;
75932;SDS011;64803;52.356;5.310;2023-04-15T09:31:51;6.53;;;3.13;;
75932;SDS011;64803;52.356;5.310;2023-04-15T09:34:18;6.63;;;2.70;;
75932;SDS011;64803;52.356;5.310;2023-04-15T09:39:16;8.52;;;3.17;;
75932;SDS011;64803;52.356;5.310;2023-04-15T09:41:42;9.40;;;2.22;;
75932;SDS011;64803;52.356;5.310;2023-04-15T09:44:22;8.10;;;2.20;;
75932;SDS011;64803;52.356;5.310;2023-04-15T09:46:48;12.38;;;3.92;;
75932;SDS011;64803;52.356;5.310;2023-04-15T09:49:14;8.30;;;3.42;;
75932;SDS011;64803;52.356;5.310;2023-04-15T09:51:40;8.93;;;3.85;;
75932;SDS011;64803;52.356;5.310;2023-04-15T09:54:07;8.43;;;4.45;;
75932;SDS011;64803;52.356;5.310;2023-04-15T09:56:36;7.75;;;3.03;;
75932;SDS011;64803;52.356;5.310;2023-04-15T09:59:09;7.55;;;3.05;;
75932;SDS011;64803;52.356;5.310;2023-04-15T10:01:35;9.18;;;4.30;;
75932;SDS011;64803;52.356;5.310;2023-04-15T10:04:02;10.20;;;3.83;;
75932;SDS011;64803;52.356;5.310;2023-04-15T10:06:29;10.35;;;4.32;;
75932;SDS011;64803;52.356;5.310;2023-04-15T10:08:56;6.90;;;2.80;;
75932;SDS011;64803;52.356;5.310;2023-04-15T10:11:23;10.98;;;4.18;;
75932;SDS011;64803;52.356;5.310;2023-04-15T10:13:50;8.77;;;2.95;;
75932;SDS011;64803;52.356;5.310;2023-04-15T10:16:18;7.72;;;3.50;;
75932;SDS011;64803;52.356;5.310;2023-04-15T10:18:46;7.57;;;2.97;;
75932;SDS011;64803;52.356;5.310;2023-04-15T10:21:16;5.70;;;2.13;;
75932;SDS011;64803;52.356;5.310;2023-04-15T10:23:46;5.07;;;2.10;;
75932;SDS011;64803;52.356;5.310;2023-04-15T10:26:12;6.32;;;2.72;;
75932;SDS011;64803;52.356;5.310;2023-04-15T10:28:48;6.55;;;2.30;;
75932;SDS011;64803;52.356;5.310;2023-04-15T10:31:15;9.52;;;4.07;;
75932;SDS011;64803;52.356;5.310;2023-04-15T10:33:43;8.95;;;3.28;;
75932;SDS011;64803;52.356;5.310;2023-04-15T10:36:10;7.82;;;3.35;;
75932;SDS011;64803;52.356;5.310;2023-04-15T10:38:38;5.63;;;2.08;;
75932;SDS011;64803;52.356;5.310;2023-04-15T10:43:53;5.55;;;2.20;;
75932;SDS011;64803;52.356;5.310;2023-04-15T10:46:23;4.72;;;1.58;;
75932;SDS011;64803;52.356;5.310;2023-04-15T10:49:05;13.10;;;1.85;;
75932;SDS011;64803;52.356;5.310;2023-04-15T10:51:33;7.53;;;2.40;;
75932;SDS011;64803;52.356;5.310;2023-04-15T10:56:51;7.13;;;1.90;;
75932;SDS011;64803;52.356;5.310;2023-04-15T10:59:36;5.90;;;2.00;;
75932;SDS011;64803;52.356;5.310;2023-04-15T11:03:09;6.68;;;2.33;;
75932;SDS011;64803;52.356;5.310;2023-04-15T11:06:06;8.02;;;2.63;;
75932;SDS011;64803;52.356;5.310;2023-04-15T11:08:09;4.47;;;2.00;;
75932;SDS011;64803;52.356;5.310;2023-04-15T11:13:24;9.52;;;2.65;;
75932;SDS011;64803;52.356;5.310;2023-04-15T11:15:54;5.18;;;1.92;;
75932;SDS011;64803;52.356;5.310;2023-04-15T11:18:26;8.02;;;2.80;;
75932;SDS011;64803;52.356;5.310;2023-04-15T11:20:54;5.20;;;1.90;;
75932;SDS011;64803;52.356;5.310;2023-04-15T11:23:34;8.10;;;3.38;;
75932;SDS011;64803;52.356;5.310;2023-04-15T11:26:13;9.48;;;2.90;;
75932;SDS011;64803;52.356;5.310;2023-04-15T11:28:40;7.45;;;2.17;;
75932;SDS011;64803;52.356;5.310;2023-04-15T11:31:12;11.02;;;2.90;;
75932;SDS011;64803;52.356;5.310;2023-04-15T11:33:59;6.03;;;2.38;;
75932;SDS011;64803;52.356;5.310;2023-04-15T11:36:27;4.45;;;1.83;;
75932;SDS011;64803;52.356;5.310;2023-04-15T11:38:56;5.97;;;1.63;;
75932;SDS011;64803;52.356;5.310;2023-04-15T11:41:23;5.80;;;1.90;;
75932;SDS011;64803;52.356;5.310;2023-04-15T11:43:50;4.72;;;1.80;;
75932;SDS011;64803;52.356;5.310;2023-04-15T11:46:16;6.05;;;1.92;;
75932;SDS011;64803;52.356;5.310;2023-04-15T11:48:43;6.72;;;2.42;;
75932;SDS011;64803;52.356;5.310;2023-04-15T11:51:10;4.38;;;1.73;;
75932;SDS011;64803;52.356;5.310;2023-04-15T11:56:05;3.90;;;1.60;;
75932;SDS011;64803;52.356;5.310;2023-04-15T11:58:33;6.57;;;2.22;;
75932;SDS011;64803;52.356;5.310;2023-04-15T12:01:04;4.75;;;1.90;;
75932;SDS011;64803;52.356;5.310;2023-04-15T12:11:16;9.95;;;2.28;;
75932;SDS011;64803;52.356;5.310;2023-04-15T12:13:46;3.72;;;1.60;;
75932;SDS011;64803;52.356;5.310;2023-04-15T12:16:19;5.15;;;2.30;;
75932;SDS011;64803;52.356;5.310;2023-04-15T12:18:47;7.95;;;2.35;;
75932;SDS011;64803;52.356;5.310;2023-04-15T12:21:19;4.68;;;1.65;;
75932;SDS011;64803;52.356;5.310;2023-04-15T12:23:49;8.10;;;2.60;;
75932;SDS011;64803;52.356;5.310;2023-04-15T12:26:28;6.28;;;1.73;;
75932;SDS011;64803;52.356;5.310;2023-04-15T12:29:00;6.63;;;2.33;;
75932;SDS011;64803;52.356;5.310;2023-04-15T12:31:27;8.27;;;2.60;;
75932;SDS011;64803;52.356;5.310;2023-04-15T12:33:57;6.85;;;2.78;;
75932;SDS011;64803;52.356;5.310;2023-04-15T12:36:23;4.60;;;1.67;;
75932;SDS011;64803;52.356;5.310;2023-04-15T12:38:50;5.30;;;2.30;;
75932;SDS011;64803;52.356;5.310;2023-04-15T12:41:16;10.18;;;1.80;;
75932;SDS011;64803;52.356;5.310;2023-04-15T12:43:45;8.02;;;2.60;;
75932;SDS011;64803;52.356;5.310;2023-04-15T12:46:14;6.88;;;2.40;;
75932;SDS011;64803;52.356;5.310;2023-04-15T12:48:41;4.35;;;1.50;;
75932;SDS011;64803;52.356;5.310;2023-04-15T12:51:07;6.30;;;1.58;;
75932;SDS011;64803;52.356;5.310;2023-04-15T12:53:33;5.85;;;1.65;;
75932;SDS011;64803;52.356;5.310;2023-04-15T12:55:59;4.53;;;1.83;;
75932;SDS011;64803;52.356;5.310;2023-04-15T12:58:25;5.10;;;1.23;;
75932;SDS011;64803;52.356;5.310;2023-04-15T13:00:51;6.72;;;1.75;;
75932;SDS011;64803;52.356;5.310;2023-04-15T13:03:17;8.77;;;2.50;;
75932;SDS011;64803;52.356;5.310;2023-04-15T13:05:43;6.88;;;2.00;;
75932;SDS011;64803;52.356;5.310;2023-04-15T13:08:09;8.20;;;1.95;;
75932;SDS011;64803;52.356;5.310;2023-04-15T13:10:35;5.97;;;1.95;;
75932;SDS011;64803;52.356;5.310;2023-04-15T13:13:02;4.75;;;1.60;;
75932;SDS011;64803;52.356;5.310;2023-04-15T13:15:28;4.95;;;1.02;;
75932;SDS011;64803;52.356;5.310;2023-04-15T13:17:54;5.10;;;1.30;;
75932;SDS011;64803;52.356;5.310;2023-04-15T13:20:20;5.18;;;1.58;;
75932;SDS011;64803;52.356;5.310;2023-04-15T13:22:46;3.60;;;1.02;;
75932;SDS011;64803;52.356;5.310;2023-04-15T13:25:12;5.55;;;1.52;;
75932;SDS011;64803;52.356;5.310;2023-04-15T13:27:38;4.57;;;1.48;;
75932;SDS011;64803;52.356;5.310;2023-04-15T13:30:05;4.75;;;1.05;;
75932;SDS011;64803;52.356;5.310;2023-04-15T13:32:32;6.35;;;1.40;;
75932;SDS011;64803;52.356;5.310;2023-04-15T13:34:58;4.38;;;1.58;;
75932;SDS011;64803;52.356;5.310;2023-04-15T13:37:27;10.13;;;1.20;;
75932;SDS011;64803;52.356;5.310;2023-04-15T13:39:55;5.07;;;1.27;;
75932;SDS011;64803;52.356;5.310;2023-04-15T13:42:21;8.25;;;1.45;;
75932;SDS011;64803;52.356;5.310;2023-04-15T13:44:48;6.97;;;1.60;;
75932;SDS011;64803;52.356;5.310;2023-04-15T13:47:18;7.20;;;1.60;;
75932;SDS011;64803;52.356;5.310;2023-04-15T13:49:45;12.93;;;2.35;;
75932;SDS011;64803;52.356;5.310;2023-04-15T13:52:11;5.68;;;1.35;;
75932;SDS011;64803;52.356;5.310;2023-04-15T13:54:37;8.90;;;1.50;;
75932;SDS011;64803;52.356;5.310;2023-04-15T13:57:03;4.50;;;0.80;;
75932;SDS011;64803;52.356;5.310;2023-04-15T13:59:31;6.40;;;1.30;;
75932;SDS011;64803;52.356;5.310;2023-04-15T14:01:59;4.30;;;0.93;;
75932;SDS011;64803;52.356;5.310;2023-04-15T14:04:25;7.95;;;1.25;;
75932;SDS011;64803;52.356;5.310;2023-04-15T14:06:51;5.57;;;1.42;;
75932;SDS011;64803;52.356;5.310;2023-04-15T14:09:17;7.30;;;1.08;;
75932;SDS011;64803;52.356;5.310;2023-04-15T14:11:43;3.60;;;0.90;;
75932;SDS011;64803;52.356;5.310;2023-04-15T14:14:09;3.67;;;0.98;;
75932;SDS011;64803;52.356;5.310;2023-04-15T14:16:35;7.53;;;1.42;;
75932;SDS011;64803;52.356;5.310;2023-04-15T14:19:01;6.03;;;1.13;;
75932;SDS011;64803;52.356;5.310;2023-04-15T14:21:27;5.43;;;1.10;;
75932;SDS011;64803;52.356;5.310;2023-04-15T14:23:54;7.32;;;1.27;;
75932;SDS011;64803;52.356;5.310;2023-04-15T14:26:20;3.80;;;1.00;;
75932;SDS011;64803;52.356;5.310;2023-04-15T14:28:46;4.18;;;1.20;;
75932;SDS011;64803;52.356;5.310;2023-04-15T14:31:13;5.65;;;1.02;;
75932;SDS011;64803;52.356;5.310;2023-04-15T14:33:39;3.55;;;1.08;;
75932;SDS011;64803;52.356;5.310;2023-04-15T14:36:05;5.53;;;1.17;;
75932;SDS011;64803;52.356;5.310;2023-04-15T14:38:35;1.92;;;0.60;;
75932;SDS011;64803;52.356;5.310;2023-04-15T14:41:03;3.53;;;1.02;;
75932;SDS011;64803;52.356;5.310;2023-04-15T14:43:29;6.10;;;1.38;;
75932;SDS011;64803;52.356;5.310;2023-04-15T14:45:55;9.30;;;1.45;;
75932;SDS011;64803;52.356;5.310;2023-04-15T14:48:21;5.55;;;0.75;;
75932;SDS011;64803;52.356;5.310;2023-04-15T14:50:48;5.13;;;1.10;;
75932;SDS011;64803;52.356;5.310;2023-04-15T14:53:14;7.45;;;1.30;;
75932;SDS011;64803;52.356;5.310;2023-04-15T14:55:40;4.55;;;1.30;;
75932;SDS011;64803;52.356;5.310;2023-04-15T14:58:06;4.50;;;1.13;;
75932;SDS011;64803;52.356;5.310;2023-04-15T15:03:00;7.20;;;0.98;;
75932;SDS011;64803;52.356;5.310;2023-04-15T15:05:26;3.85;;;0.68;;
75932;SDS011;64803;52.356;5.310;2023-04-15T15:07:52;4.32;;;0.90;;
75932;SDS011;64803;52.356;5.310;2023-04-15T15:10:18;11.88;;;1.75;;